sensor_id;sensor_type;location;lat;lon;timestamp;temperature;humidity
43991;DHT22;29654;50.784;20.604;2023-04-01T00:00:17;16.30;53.70
43991;DHT22;29654;50.784;20.604;2023-04-01T00:05:22;16.30;53.80
43991;DHT22;29654;50.784;20.604;2023-04-01T00:10:25;16.30;53.60
43991;DHT22;29654;50.784;20.604;2023-04-01T00:15:29;16.30;53.60
43991;DHT22;29654;50.784;20.604;2023-04-01T00:20:31;16.30;53.80
43991;DHT22;29654;50.784;20.604;2023-04-01T00:25:34;16.30;53.60
43991;DHT22;29654;50.784;20.604;2023-04-01T00:30:38;16.30;53.60
43991;DHT22;29654;50.784;20.604;2023-04-01T00:35:41;16.20;53.60
43991;DHT22;29654;50.784;20.604;2023-04-01T00:40:45;16.20;53.50
43991;DHT22;29654;50.784;20.604;2023-04-01T00:45:50;16.10;53.50
43991;DHT22;29654;50.784;20.604;2023-04-01T00:50:55;16.00;53.40
43991;DHT22;29654;50.784;20.604;2023-04-01T00:56:03;15.90;53.40
43991;DHT22;29654;50.784;20.604;2023-04-01T01:01:10;15.80;53.50
43991;DHT22;29654;50.784;20.604;2023-04-01T01:06:30;15.70;53.60
43991;DHT22;29654;50.784;20.604;2023-04-01T01:11:44;15.70;54.20
43991;DHT22;29654;50.784;20.604;2023-04-01T01:16:54;15.60;53.60
43991;DHT22;29654;50.784;20.604;2023-04-01T01:22:11;15.50;53.70
43991;DHT22;29654;50.784;20.604;2023-04-01T01:27:22;15.40;53.80
43991;DHT22;29654;50.784;20.604;2023-04-01T01:38:01;15.20;53.90
43991;DHT22;29654;50.784;20.604;2023-04-01T01:43:09;15.10;53.70
43991;DHT22;29654;50.784;20.604;2023-04-01T01:48:13;15.00;53.60
43991;DHT22;29654;50.784;20.604;2023-04-01T01:53:18;14.90;53.40
43991;DHT22;29654;50.784;20.604;2023-04-01T01:58:23;14.80;53.40
43991;DHT22;29654;50.784;20.604;2023-04-01T02:03:29;14.70;53.20
43991;DHT22;29654;50.784;20.604;2023-04-01T02:08:37;14.60;53.10
43991;DHT22;29654;50.784;20.604;2023-04-01T02:13:45;14.50;53.10
43991;DHT22;29654;50.784;20.604;2023-04-01T02:18:53;14.30;53.00
43991;DHT22;29654;50.784;20.604;2023-04-01T02:24:00;14.20;53.00
43991;DHT22;29654;50.784;20.604;2023-04-01T02:29:08;14.00;53.10
43991;DHT22;29654;50.784;20.604;2023-04-01T02:34:11;13.90;53.10
43991;DHT22;29654;50.784;20.604;2023-04-01T02:39:16;13.80;53.00
43991;DHT22;29654;50.784;20.604;2023-04-01T02:44:18;13.60;53.00
43991;DHT22;29654;50.784;20.604;2023-04-01T02:49:21;13.50;53.10
43991;DHT22;29654;50.784;20.604;2023-04-01T02:54:25;13.40;53.30
43991;DHT22;29654;50.784;20.604;2023-04-01T02:59:27;13.30;53.50
43991;DHT22;29654;50.784;20.604;2023-04-01T03:04:30;13.20;53.60
43991;DHT22;29654;50.784;20.604;2023-04-01T03:09:34;13.10;54.00
43991;DHT22;29654;50.784;20.604;2023-04-01T03:14:36;13.20;54.60
43991;DHT22;29654;50.784;20.604;2023-04-01T03:19:39;13.20;54.70
43991;DHT22;29654;50.784;20.604;2023-04-01T03:24:45;13.20;54.90
43991;DHT22;29654;50.784;20.604;2023-04-01T03:29:47;13.30;55.10
43991;DHT22;29654;50.784;20.604;2023-04-01T03:34:50;13.30;54.90
43991;DHT22;29654;50.784;20.604;2023-04-01T03:39:54;13.40;55.00
43991;DHT22;29654;50.784;20.604;2023-04-01T03:44:56;13.40;55.00
43991;DHT22;29654;50.784;20.604;2023-04-01T03:49:59;13.40;54.80
43991;DHT22;29654;50.784;20.604;2023-04-01T03:55:04;13.50;54.80
43991;DHT22;29654;50.784;20.604;2023-04-01T04:00:08;13.50;55.00
43991;DHT22;29654;50.784;20.604;2023-04-01T04:05:14;13.50;55.00
43991;DHT22;29654;50.784;20.604;2023-04-01T04:10:20;13.50;55.00
43991;DHT22;29654;50.784;20.604;2023-04-01T04:15:23;13.50;55.10
43991;DHT22;29654;50.784;20.604;2023-04-01T04:20:26;13.60;55.10
43991;DHT22;29654;50.784;20.604;2023-04-01T04:25:30;13.60;55.10
43991;DHT22;29654;50.784;20.604;2023-04-01T04:30:32;13.70;55.20
43991;DHT22;29654;50.784;20.604;2023-04-01T04:35:35;13.70;55.20
43991;DHT22;29654;50.784;20.604;2023-04-01T04:40:40;13.70;55.20
43991;DHT22;29654;50.784;20.604;2023-04-01T04:45:45;13.80;55.30
43991;DHT22;29654;50.784;20.604;2023-04-01T04:50:50;13.90;55.30
43991;DHT22;29654;50.784;20.604;2023-04-01T04:55:58;13.90;55.40
43991;DHT22;29654;50.784;20.604;2023-04-01T05:01:13;14.00;55.40
43991;DHT22;29654;50.784;20.604;2023-04-01T05:06:18;14.10;55.40
43991;DHT22;29654;50.784;20.604;2023-04-01T05:11:22;14.20;55.40
43991;DHT22;29654;50.784;20.604;2023-04-01T05:16:26;14.20;55.50
43991;DHT22;29654;50.784;20.604;2023-04-01T05:21:29;14.20;55.40
43991;DHT22;29654;50.784;20.604;2023-04-01T05:26:34;14.30;55.40
43991;DHT22;29654;50.784;20.604;2023-04-01T05:31:37;14.40;55.50
43991;DHT22;29654;50.784;20.604;2023-04-01T05:36:40;14.40;55.20
43991;DHT22;29654;50.784;20.604;2023-04-01T05:41:45;14.50;55.40
43991;DHT22;29654;50.784;20.604;2023-04-01T05:46:49;14.60;55.60
43991;DHT22;29654;50.784;20.604;2023-04-01T05:52:01;14.70;55.80
43991;DHT22;29654;50.784;20.604;2023-04-01T05:57:07;14.90;55.90
43991;DHT22;29654;50.784;20.604;2023-04-01T06:02:10;15.00;55.90
43991;DHT22;29654;50.784;20.604;2023-04-01T06:07:13;15.20;56.00
43991;DHT22;29654;50.784;20.604;2023-04-01T06:12:29;15.50;56.00
43991;DHT22;29654;50.784;20.604;2023-04-01T06:18:21;15.70;56.10
43991;DHT22;29654;50.784;20.604;2023-04-01T06:24:02;15.80;56.00
43991;DHT22;29654;50.784;20.604;2023-04-01T06:29:43;16.00;55.90
43991;DHT22;29654;50.784;20.604;2023-04-01T06:35:07;16.30;56.30
43991;DHT22;29654;50.784;20.604;2023-04-01T06:40:44;16.50;55.40
43991;DHT22;29654;50.784;20.604;2023-04-01T06:46:04;16.60;55.10
43991;DHT22;29654;50.784;20.604;2023-04-01T06:51:43;16.80;54.90
43991;DHT22;29654;50.784;20.604;2023-04-01T06:57:21;16.90;54.70
43991;DHT22;29654;50.784;20.604;2023-04-01T07:02:34;17.00;55.00
43991;DHT22;29654;50.784;20.604;2023-04-01T07:07:43;17.20;55.10
43991;DHT22;29654;50.784;20.604;2023-04-01T07:12:51;17.30;54.80
43991;DHT22;29654;50.784;20.604;2023-04-01T07:18:21;17.40;54.40
43991;DHT22;29654;50.784;20.604;2023-04-01T07:23:31;17.60;54.20
43991;DHT22;29654;50.784;20.604;2023-04-01T07:28:57;17.60;53.80
43991;DHT22;29654;50.784;20.604;2023-04-01T07:34:19;17.60;53.50
43991;DHT22;29654;50.784;20.604;2023-04-01T07:39:34;17.70;53.70
43991;DHT22;29654;50.784;20.604;2023-04-01T07:44:57;17.70;53.60
43991;DHT22;29654;50.784;20.604;2023-04-01T07:50:13;17.70;53.60
43991;DHT22;29654;50.784;20.604;2023-04-01T07:55:24;17.70;53.70
43991;DHT22;29654;50.784;20.604;2023-04-01T08:00:33;17.60;53.90
43991;DHT22;29654;50.784;20.604;2023-04-01T08:05:55;17.60;53.70
43991;DHT22;29654;50.784;20.604;2023-04-01T08:11:05;17.60;53.80
43991;DHT22;29654;50.784;20.604;2023-04-01T08:16:17;17.70;54.00
43991;DHT22;29654;50.784;20.604;2023-04-01T08:21:28;17.80;54.10
43991;DHT22;29654;50.784;20.604;2023-04-01T08:26:37;17.80;54.10
43991;DHT22;29654;50.784;20.604;2023-04-01T08:31:47;17.90;53.90
43991;DHT22;29654;50.784;20.604;2023-04-01T08:36:59;17.90;54.00
43991;DHT22;29654;50.784;20.604;2023-04-01T08:48:19;18.20;55.30
43991;DHT22;29654;50.784;20.604;2023-04-01T08:54:00;18.50;54.70
43991;DHT22;29654;50.784;20.604;2023-04-01T08:59:26;18.60;54.20
43991;DHT22;29654;50.784;20.604;2023-04-01T09:11:03;19.00;54.20
43991;DHT22;29654;50.784;20.604;2023-04-01T09:22:47;19.30;52.50
43991;DHT22;29654;50.784;20.604;2023-04-01T09:27:57;19.40;52.20
43991;DHT22;29654;50.784;20.604;2023-04-01T09:39:22;19.10;52.00
43991;DHT22;29654;50.784;20.604;2023-04-01T09:44:37;19.00;52.20
43991;DHT22;29654;50.784;20.604;2023-04-01T09:50:00;18.80;52.20
43991;DHT22;29654;50.784;20.604;2023-04-01T10:01:25;18.50;53.10
43991;DHT22;29654;50.784;20.604;2023-04-01T10:07:13;18.50;53.60
43991;DHT22;29654;50.784;20.604;2023-04-01T10:12:55;18.50;53.60
43991;DHT22;29654;50.784;20.604;2023-04-01T10:24:28;18.60;54.20
43991;DHT22;29654;50.784;20.604;2023-04-01T10:36:20;18.80;53.90
43991;DHT22;29654;50.784;20.604;2023-04-01T10:48:21;19.00;53.60
43991;DHT22;29654;50.784;20.604;2023-04-01T10:53:46;19.10;53.00
43991;DHT22;29654;50.784;20.604;2023-04-01T11:17:27;19.40;52.20
43991;DHT22;29654;50.784;20.604;2023-04-01T11:23:07;19.30;51.70
43991;DHT22;29654;50.784;20.604;2023-04-01T11:40:56;19.20;51.70
43991;DHT22;29654;50.784;20.604;2023-04-01T11:46:29;19.20;51.50
43991;DHT22;29654;50.784;20.604;2023-04-01T11:57:43;19.30;51.00
43991;DHT22;29654;50.784;20.604;2023-04-01T12:03:08;19.40;51.10
43991;DHT22;29654;50.784;20.604;2023-04-01T12:08:36;19.40;50.90
43991;DHT22;29654;50.784;20.604;2023-04-01T12:13:48;19.40;50.80
43991;DHT22;29654;50.784;20.604;2023-04-01T12:18:58;19.30;50.80
43991;DHT22;29654;50.784;20.604;2023-04-01T12:24:25;19.20;50.60
43991;DHT22;29654;50.784;20.604;2023-04-01T12:29:49;19.10;50.00
43991;DHT22;29654;50.784;20.604;2023-04-01T12:35:20;19.10;49.90
43991;DHT22;29654;50.784;20.604;2023-04-01T12:40:43;19.00;50.10
43991;DHT22;29654;50.784;20.604;2023-04-01T12:45:54;18.90;50.50
43991;DHT22;29654;50.784;20.604;2023-04-01T12:57:01;18.90;50.80
43991;DHT22;29654;50.784;20.604;2023-04-01T13:02:14;19.00;51.20
43991;DHT22;29654;50.784;20.604;2023-04-01T13:07:49;19.10;51.30
43991;DHT22;29654;50.784;20.604;2023-04-01T13:18:52;19.50;50.90
43991;DHT22;29654;50.784;20.604;2023-04-01T13:24:03;19.60;50.80
43991;DHT22;29654;50.784;20.604;2023-04-01T13:29:14;19.70;50.40
43991;DHT22;29654;50.784;20.604;2023-04-01T13:34:33;19.70;50.40
43991;DHT22;29654;50.784;20.604;2023-04-01T13:39:48;19.70;50.20
43991;DHT22;29654;50.784;20.604;2023-04-01T13:45:02;19.60;50.10
43991;DHT22;29654;50.784;20.604;2023-04-01T13:50:55;19.60;50.20
43991;DHT22;29654;50.784;20.604;2023-04-01T13:56:16;19.50;50.70
43991;DHT22;29654;50.784;20.604;2023-04-01T14:01:38;19.40;50.90
43991;DHT22;29654;50.784;20.604;2023-04-01T14:06:53;19.20;51.00
43991;DHT22;29654;50.784;20.604;2023-04-01T14:12:05;19.10;51.30
43991;DHT22;29654;50.784;20.604;2023-04-01T14:17:21;19.00;51.20
43991;DHT22;29654;50.784;20.604;2023-04-01T14:22:42;18.90;51.50
43991;DHT22;29654;50.784;20.604;2023-04-01T14:27:56;18.80;52.00
43991;DHT22;29654;50.784;20.604;2023-04-01T14:33:11;18.80;52.80
43991;DHT22;29654;50.784;20.604;2023-04-01T14:38:31;18.80;53.00
43991;DHT22;29654;50.784;20.604;2023-04-01T14:44:09;18.80;52.80
43991;DHT22;29654;50.784;20.604;2023-04-01T14:49:34;18.90;53.00
43991;DHT22;29654;50.784;20.604;2023-04-01T14:54:40;18.90;52.40
43991;DHT22;29654;50.784;20.604;2023-04-01T14:59:49;18.90;52.30
43991;DHT22;29654;50.784;20.604;2023-04-01T15:04:58;18.80;52.20
43991;DHT22;29654;50.784;20.604;2023-04-01T15:10:27;18.70;52.00
43991;DHT22;29654;50.784;20.604;2023-04-01T15:15:59;18.60;52.10
43991;DHT22;29654;50.784;20.604;2023-04-01T15:21:23;18.50;52.50
43991;DHT22;29654;50.784;20.604;2023-04-01T15:27:27;18.40;52.60
43991;DHT22;29654;50.784;20.604;2023-04-01T15:32:46;18.30;53.00
43991;DHT22;29654;50.784;20.604;2023-04-01T15:37:58;18.20;53.50
43991;DHT22;29654;50.784;20.604;2023-04-01T15:43:15;18.20;53.20
43991;DHT22;29654;50.784;20.604;2023-04-01T15:48:34;18.20;53.40
43991;DHT22;29654;50.784;20.604;2023-04-01T15:54:02;18.20;53.30
43991;DHT22;29654;50.784;20.604;2023-04-01T15:59:24;18.10;53.10
43991;DHT22;29654;50.784;20.604;2023-04-01T16:04:48;18.10;53.00
43991;DHT22;29654;50.784;20.604;2023-04-01T16:10:09;18.00;52.90
43991;DHT22;29654;50.784;20.604;2023-04-01T16:15:26;17.80;53.10
43991;DHT22;29654;50.784;20.604;2023-04-01T16:20:44;17.70;53.30
43991;DHT22;29654;50.784;20.604;2023-04-01T16:25:53;17.60;53.60
43991;DHT22;29654;50.784;20.604;2023-04-01T16:31:07;17.50;53.40
43991;DHT22;29654;50.784;20.604;2023-04-01T16:36:22;17.50;53.60
43991;DHT22;29654;50.784;20.604;2023-04-01T16:41:31;17.30;53.70
43991;DHT22;29654;50.784;20.604;2023-04-01T16:46:38;17.30;53.70
43991;DHT22;29654;50.784;20.604;2023-04-01T16:51:46;17.20;53.70
43991;DHT22;29654;50.784;20.604;2023-04-01T16:56:55;17.10;54.00
43991;DHT22;29654;50.784;20.604;2023-04-01T17:02:04;17.00;54.00
43991;DHT22;29654;50.784;20.604;2023-04-01T17:07:23;16.90;54.30
43991;DHT22;29654;50.784;20.604;2023-04-01T17:12:35;16.90;54.50
43991;DHT22;29654;50.784;20.604;2023-04-01T17:17:49;16.80;54.40
43991;DHT22;29654;50.784;20.604;2023-04-01T17:23:01;16.70;54.50
43991;DHT22;29654;50.784;20.604;2023-04-01T17:28:24;16.70;54.60
43991;DHT22;29654;50.784;20.604;2023-04-01T17:34:01;16.70;54.80
43991;DHT22;29654;50.784;20.604;2023-04-01T17:39:32;16.60;54.90
43991;DHT22;29654;50.784;20.604;2023-04-01T17:44:49;16.50;55.00
43991;DHT22;29654;50.784;20.604;2023-04-01T17:50:07;16.50;54.90
43991;DHT22;29654;50.784;20.604;2023-04-01T17:55:34;16.50;54.90
43991;DHT22;29654;50.784;20.604;2023-04-01T18:01:03;16.50;55.30
43991;DHT22;29654;50.784;20.604;2023-04-01T18:06:14;16.40;55.30
43991;DHT22;29654;50.784;20.604;2023-04-01T18:11:31;16.40;55.10
43991;DHT22;29654;50.784;20.604;2023-04-01T18:16:51;16.40;55.30
43991;DHT22;29654;50.784;20.604;2023-04-01T18:22:09;16.40;55.20
43991;DHT22;29654;50.784;20.604;2023-04-01T18:27:23;16.40;55.30
43991;DHT22;29654;50.784;20.604;2023-04-01T18:32:32;16.30;55.20
43991;DHT22;29654;50.784;20.604;2023-04-01T18:37:42;16.30;55.30
43991;DHT22;29654;50.784;20.604;2023-04-01T18:42:59;16.30;56.10
43991;DHT22;29654;50.784;20.604;2023-04-01T18:48:25;16.30;55.80
43991;DHT22;29654;50.784;20.604;2023-04-01T18:53:44;16.20;55.70
43991;DHT22;29654;50.784;20.604;2023-04-01T18:58:58;16.30;55.30
43991;DHT22;29654;50.784;20.604;2023-04-01T19:04:18;16.20;55.70
43991;DHT22;29654;50.784;20.604;2023-04-01T19:09:27;16.20;56.00
43991;DHT22;29654;50.784;20.604;2023-04-01T19:14:45;16.20;55.50
43991;DHT22;29654;50.784;20.604;2023-04-01T19:20:00;16.20;55.90
43991;DHT22;29654;50.784;20.604;2023-04-01T19:25:26;16.10;55.70
43991;DHT22;29654;50.784;20.604;2023-04-01T19:30:45;16.10;56.20
43991;DHT22;29654;50.784;20.604;2023-04-01T19:36:01;16.10;56.00
43991;DHT22;29654;50.784;20.604;2023-04-01T19:41:19;16.10;55.90
43991;DHT22;29654;50.784;20.604;2023-04-01T19:46:35;16.10;55.90
43991;DHT22;29654;50.784;20.604;2023-04-01T19:51:45;16.10;55.90
43991;DHT22;29654;50.784;20.604;2023-04-01T19:57:00;16.10;55.90
43991;DHT22;29654;50.784;20.604;2023-04-01T20:02:39;16.00;55.90
43991;DHT22;29654;50.784;20.604;2023-04-01T20:07:56;16.00;56.20
43991;DHT22;29654;50.784;20.604;2023-04-01T20:13:05;16.00;55.60
43991;DHT22;29654;50.784;20.604;2023-04-01T20:18:17;15.90;55.60
43991;DHT22;29654;50.784;20.604;2023-04-01T20:23:39;15.90;55.90
43991;DHT22;29654;50.784;20.604;2023-04-01T20:28:48;15.80;56.00
43991;DHT22;29654;50.784;20.604;2023-04-01T20:34:26;15.80;55.90
43991;DHT22;29654;50.784;20.604;2023-04-01T20:45:31;15.70;56.40
43991;DHT22;29654;50.784;20.604;2023-04-01T20:50:41;15.80;56.40
43991;DHT22;29654;50.784;20.604;2023-04-01T20:56:02;15.80;56.20
43991;DHT22;29654;50.784;20.604;2023-04-01T21:01:34;15.80;56.30
43991;DHT22;29654;50.784;20.604;2023-04-01T21:07:04;15.70;56.00
43991;DHT22;29654;50.784;20.604;2023-04-01T21:12:30;15.70;56.20
43991;DHT22;29654;50.784;20.604;2023-04-01T21:17:50;15.70;56.20
43991;DHT22;29654;50.784;20.604;2023-04-01T21:23:18;15.70;56.10
43991;DHT22;29654;50.784;20.604;2023-04-01T21:28:35;15.60;56.20
43991;DHT22;29654;50.784;20.604;2023-04-01T21:34:04;15.60;56.30
43991;DHT22;29654;50.784;20.604;2023-04-01T21:39:42;15.60;56.40
43991;DHT22;29654;50.784;20.604;2023-04-01T21:45:02;15.60;56.40
43991;DHT22;29654;50.784;20.604;2023-04-01T22:02:17;15.50;56.30
43991;DHT22;29654;50.784;20.604;2023-04-01T22:07:32;15.50;56.20
43991;DHT22;29654;50.784;20.604;2023-04-01T22:12:43;15.40;56.20
43991;DHT22;29654;50.784;20.604;2023-04-01T22:17:53;15.40;56.00
43991;DHT22;29654;50.784;20.604;2023-04-01T22:23:17;15.40;55.90
43991;DHT22;29654;50.784;20.604;2023-04-01T22:28:29;15.30;56.80
43991;DHT22;29654;50.784;20.604;2023-04-01T22:33:40;15.30;56.20
43991;DHT22;29654;50.784;20.604;2023-04-01T22:39:02;15.30;56.20
43991;DHT22;29654;50.784;20.604;2023-04-01T22:44:20;15.30;56.20
43991;DHT22;29654;50.784;20.604;2023-04-01T22:49:36;15.20;56.80
43991;DHT22;29654;50.784;20.604;2023-04-01T22:54:45;15.20;56.30
43991;DHT22;29654;50.784;20.604;2023-04-01T22:59:54;15.10;56.20
43991;DHT22;29654;50.784;20.604;2023-04-01T23:05:03;15.10;56.20
43991;DHT22;29654;50.784;20.604;2023-04-01T23:10:15;15.10;56.20
43991;DHT22;29654;50.784;20.604;2023-04-01T23:15:22;15.10;56.40
43991;DHT22;29654;50.784;20.604;2023-04-01T23:20:31;15.10;56.20
43991;DHT22;29654;50.784;20.604;2023-04-01T23:25:47;15.10;56.40
43991;DHT22;29654;50.784;20.604;2023-04-01T23:30:57;15.00;56.40
43991;DHT22;29654;50.784;20.604;2023-04-01T23:36:01;15.00;56.30
43991;DHT22;29654;50.784;20.604;2023-04-01T23:41:07;15.00;56.20
43991;DHT22;29654;50.784;20.604;2023-04-01T23:46:13;14.90;56.10
43991;DHT22;29654;50.784;20.604;2023-04-01T23:51:19;14.90;56.20
43991;DHT22;29654;50.784;20.604;2023-04-01T23:56:35;14.90;56.40
